Tabiona
, Tabiona
Last Weather Update:10/31/2011 10:00:00 PM
Date
ETo
ETc
Rain
Irrigation
Req
Temp
Max
Temp
Min
Temp
Avg
Avg RH
Avg Wind
Avg Solar
inches
inches
incehs
inches
F
F
F
%
%
watts/m2
9/1/2011 0.34" 0.23" 0.00" 0.23" 80.6° 44.2° 61.9° 34.6% 7.5 MPH 432.8w/m2
9/2/2011 0.29" 0.20" 0.00" 0.20" 79.4° 43.8° 61.2° 31.1% 7.6 MPH 463.1w/m2
9/3/2011 0.29" 0.20" 0.00" 0.20" 79.9° 41.8° 59.9° 31.9% 7.4 MPH 483.7w/m2
9/4/2011 0.27" 0.19" 0.00" 0.19" 83.0° 42.3° 60.9° 34.3% 7.6 MPH 446.5w/m2
9/5/2011 0.27" 0.18" 0.00" 0.18" 82.5° 47.9° 62.7° 38.0% 6.7 MPH 366.3w/m2
9/6/2011 0.20" 0.14" 0.18" -0.01" 75.1° 45.5° 57.9° 70.8% 3.4 MPH 318.9w/m2
9/7/2011 0.15" 0.10" 0.03" 0.08" 71.5° 40.8° 53.3° 72.9% 6.8 MPH 328.2w/m2
9/8/2011 0.18" 0.12" 0.00" 0.12" 74.0° 42.0° 55.5° 60.5% 7.0 MPH 353.5w/m2
9/9/2011 0.19" 0.13" 0.00" 0.13" 71.8° 43.7° 56.6° 58.6% 7.4 MPH 462.1w/m2
9/10/2011 0.19" 0.13" 0.00" 0.13" 72.6° 42.6° 55.7° 57.6% 6.2 MPH 379.5w/m2
9/11/2011 0.23" 0.15" 0.02" 0.14" 70.0° 45.4° 54.8° 65.4% 5.5 MPH 384.0w/m2
9/12/2011 0.26" 0.17" 0.00" 0.17" 70.9° 42.5° 54.2° 62.0% 7.0 MPH 425.9w/m2
9/13/2011 0.26" 0.17" 0.00" 0.17" 73.2° 40.6° 55.3° 54.1% 6.1 MPH 405.7w/m2
9/14/2011 0.28" 0.19" 0.00" 0.19" 74.2° 44.2° 55.5° 59.5% 6.3 MPH 447.1w/m2
9/15/2011 0.26" 0.17" 0.08" 0.11" 69.8° 44.3° 54.4° 69.0% 4.2 MPH 441.4w/m2
9/16/2011 0.19" 0.12" 0.08" 0.06" 69.1° 41.1° 51.3° 74.6% 6.5 MPH 345.7w/m2
9/17/2011 0.24" 0.16" 0.06" 0.11" 64.5° 39.6° 51.5° 68.0% 5.9 MPH 461.3w/m2
9/18/2011 0.23" 0.14" 0.00" 0.14" 71.9° 35.2° 53.4° 54.9% 7.3 MPH 638.4w/m2
9/19/2011 0.37" 0.23" 0.00" 0.23" 73.7° 39.3° 55.4° 49.6% 7.1 MPH 562.9w/m2
9/20/2011 0.29" 0.18" 0.00" 0.18" 71.4° 40.3° 56.0° 44.3% 8.8 MPH 632.7w/m2
9/21/2011 0.31" 0.19" 0.00" 0.19" 73.9° 38.0° 56.4° 41.0% 7.4 MPH 652.8w/m2
9/22/2011 0.32" 0.20" 0.00" 0.20" 79.8° 39.3° 58.0° 38.4% 9.0 MPH 646.3w/m2
9/23/2011 0.32" 0.20" 0.00" 0.20" 80.7° 40.1° 58.4° 29.9% 8.2 MPH 521.2w/m2
9/24/2011 0.30" 0.18" 0.00" 0.18" 81.4° 41.5° 58.5° 34.5% 7.8 MPH 489.6w/m2
9/25/2011 0.31" 0.19" 0.00" 0.19" 83.5° 43.0° 60.0° 32.4% 7.8 MPH 416.7w/m2
9/26/2011 0.32" 0.20" 0.00" 0.20" 76.6° 46.1° 59.9° 38.9% 8.1 MPH 456.6w/m2
9/27/2011 0.30" 0.18" 0.00" 0.18" 79.4° 43.0° 60.0° 37.4% 8.1 MPH 496.5w/m2
9/28/2011 0.32" 0.19" 0.00" 0.19" 81.5° 42.5° 62.1° 36.5% 7.9 MPH 505.9w/m2
9/29/2011 0.25" 0.15" 0.00" 0.15" 78.5° 43.4° 59.1° 38.5% 7.8 MPH 638.2w/m2
9/30/2011 0.25" 0.15" 0.00" 0.15" 82.7° 43.3° 59.5° 40.5% 7.7 MPH 411.1w/m2
Totals: 7.97" 5.15" 0.45" 4.79" 83.5° 35.2° 57.3° 48.7% 7.1 MPH 467.2w/m2